createdAt,value
2022-09-09T00:00:57.591Z,9.32
2022-09-09T00:03:28.526Z,9.68
2022-09-09T00:06:31.253Z,9.27
2022-09-09T00:09:22.248Z,10.75
2022-09-09T00:12:04.550Z,9.88
2022-09-09T00:14:53.184Z,8.93
2022-09-09T00:17:44.454Z,10.30
2022-09-09T00:20:30.784Z,9.75
2022-09-09T00:23:13.057Z,10.77
2022-09-09T00:25:55.426Z,10.10
2022-09-09T00:28:26.631Z,8.65
2022-09-09T00:30:54.377Z,9.93
2022-09-09T00:33:25.804Z,10.57
2022-09-09T00:35:57.734Z,9.18
2022-09-09T00:38:39.042Z,9.15
2022-09-09T00:41:18.895Z,9.38
2022-09-09T00:43:55.711Z,9.38
2022-09-09T00:46:46.718Z,10.68
2022-09-09T00:49:21.342Z,10.55
2022-09-09T00:52:21.577Z,9.40
2022-09-09T00:55:06.637Z,9.10
2022-09-09T00:57:36.197Z,10.35
2022-09-09T01:00:19.197Z,11.40
2022-09-09T01:03:11.386Z,10.50
2022-09-09T01:05:47.542Z,12.25
2022-09-09T01:08:32.916Z,9.85
2022-09-09T01:11:01.223Z,10.55
2022-09-09T01:13:36.045Z,8.80
2022-09-09T01:16:12.430Z,10.00
2022-09-09T01:18:45.751Z,10.02
2022-09-09T01:21:49.758Z,9.85
2022-09-09T01:24:27.014Z,9.40
2022-09-09T01:27:16.079Z,9.35
2022-09-09T01:29:43.343Z,9.25
2022-09-09T01:32:38.472Z,9.35
2022-09-09T01:35:07.600Z,11.95
2022-09-09T01:37:34.784Z,11.43
2022-09-09T01:40:02.030Z,10.88
2022-09-09T01:42:31.203Z,10.90
2022-09-09T01:44:59.298Z,9.53
2022-09-09T01:47:26.850Z,10.82
2022-09-09T01:50:12.808Z,10.65
2022-09-09T01:52:39.931Z,11.73
2022-09-09T01:55:11.574Z,12.27
2022-09-09T01:57:49.211Z,10.70
2022-09-09T02:00:17.391Z,10.98
2022-09-09T02:03:01.914Z,11.77
2022-09-09T02:05:49.031Z,10.23
2022-09-09T02:08:30.190Z,12.15
2022-09-09T02:11:14.133Z,11.07
2022-09-09T02:13:49.986Z,10.50
2022-09-09T02:16:26.346Z,11.27
2022-09-09T02:19:04.076Z,11.23
2022-09-09T02:21:44.959Z,11.65
2022-09-09T02:24:15.387Z,12.73
2022-09-09T02:26:53.417Z,12.38
2022-09-09T02:29:26.694Z,12.48
2022-09-09T02:31:59.389Z,11.70
2022-09-09T02:34:37.289Z,10.95
2022-09-09T02:37:05.451Z,11.02
2022-09-09T02:39:32.851Z,13.00
2022-09-09T02:42:00.875Z,11.05
2022-09-09T02:44:32.483Z,13.10
2022-09-09T02:47:09.386Z,12.60
2022-09-09T02:49:42.467Z,14.05
2022-09-09T02:52:17.313Z,13.82
2022-09-09T02:54:44.730Z,11.63
2022-09-09T02:57:26.932Z,12.45
2022-09-09T02:59:58.706Z,11.77
2022-09-09T03:02:26.476Z,11.18
2022-09-09T03:04:59.175Z,13.55
2022-09-09T03:07:26.162Z,12.18
2022-09-09T03:09:56.063Z,12.20
2022-09-09T03:12:26.174Z,11.75
2022-09-09T03:14:53.022Z,11.98
2022-09-09T03:17:20.566Z,14.52
2022-09-09T03:19:53.773Z,12.15
2022-09-09T03:22:20.762Z,12.48
2022-09-09T03:24:48.138Z,11.32
2022-09-09T03:27:15.624Z,10.82
2022-09-09T03:29:42.716Z,12.45
2022-09-09T03:32:14.314Z,11.45
2022-09-09T03:34:41.562Z,11.30
2022-09-09T03:37:11.687Z,10.43
2022-09-09T03:39:40.098Z,10.20
2022-09-09T03:42:09.163Z,11.05
2022-09-09T03:44:36.169Z,11.55
2022-09-09T03:47:03.199Z,11.60
2022-09-09T03:49:30.253Z,11.75
2022-09-09T03:51:58.319Z,11.07
2022-09-09T03:54:26.529Z,9.70
2022-09-09T03:56:53.413Z,11.70
2022-09-09T03:59:22.401Z,11.43
2022-09-09T04:01:49.606Z,11.07
2022-09-09T04:04:16.849Z,11.75
2022-09-09T04:06:43.916Z,12.85
2022-09-09T04:09:10.977Z,14.13
2022-09-09T04:11:38.345Z,12.85
2022-09-09T04:14:07.181Z,12.15
2022-09-09T04:16:36.509Z,11.57
2022-09-09T04:19:05.378Z,11.52
2022-09-09T04:21:32.473Z,13.45
2022-09-09T04:24:01.153Z,12.45
2022-09-09T04:26:28.306Z,12.93
2022-09-09T04:28:55.237Z,13.73
2022-09-09T04:31:24.939Z,13.50
2022-09-09T04:33:55.004Z,15.48
2022-09-09T04:36:22.435Z,16.42
2022-09-09T04:38:51.885Z,15.40
2022-09-09T04:41:19.217Z,13.98
2022-09-09T04:43:49.636Z,14.95
2022-09-09T04:46:18.599Z,12.70
2022-09-09T04:48:48.173Z,15.02
2022-09-09T04:51:15.728Z,13.20
2022-09-09T04:53:44.758Z,14.82
2022-09-09T04:56:15.410Z,12.00
2022-09-09T04:58:50.656Z,12.00
2022-09-09T05:01:20.557Z,12.73
2022-09-09T05:03:49.325Z,11.90
2022-09-09T05:06:22.483Z,12.05
2022-09-09T05:08:53.065Z,12.77
2022-09-09T05:11:27.656Z,14.20
2022-09-09T05:13:59.573Z,12.18
2022-09-09T05:16:27.933Z,12.10
2022-09-09T05:18:55.694Z,12.45
2022-09-09T05:21:24.256Z,13.27
2022-09-09T05:23:52.605Z,13.80
2022-09-09T05:26:23.033Z,13.90
2022-09-09T05:28:52.430Z,14.52
2022-09-09T05:31:20.643Z,15.00
2022-09-09T05:33:50.729Z,15.95
2022-09-09T05:36:21.239Z,15.48
2022-09-09T05:38:51.373Z,14.30
2022-09-09T05:41:20.563Z,13.93
2022-09-09T05:43:48.743Z,14.70
2022-09-09T05:46:19.871Z,12.43
2022-09-09T05:48:51.286Z,15.23
2022-09-09T05:51:27.855Z,12.82
2022-09-09T05:53:59.600Z,14.40
2022-09-09T05:56:30.575Z,15.30
2022-09-09T05:59:01.278Z,15.43
2022-09-09T06:01:32.209Z,14.73
2022-09-09T06:04:00.818Z,15.45
2022-09-09T06:06:37.790Z,13.30
2022-09-09T06:09:11.623Z,14.13
2022-09-09T06:11:42.633Z,14.00
2022-09-09T06:14:11.103Z,13.60
2022-09-09T06:16:39.726Z,13.60
2022-09-09T06:19:14.071Z,13.40
2022-09-09T06:21:42.332Z,12.55
2022-09-09T06:24:10.213Z,13.60
2022-09-09T06:26:44.060Z,13.88
2022-09-09T06:29:14.035Z,11.90
2022-09-09T06:31:42.996Z,11.85
2022-09-09T06:34:20.854Z,13.57
2022-09-09T06:36:53.159Z,13.73
2022-09-09T06:39:20.133Z,13.10
2022-09-09T06:41:47.654Z,13.48
2022-09-09T06:44:35.442Z,10.93
2022-09-09T06:47:04.618Z,12.65
2022-09-09T06:49:33.380Z,11.95
2022-09-09T06:52:01.486Z,11.85
2022-09-09T06:54:29.777Z,13.05
2022-09-09T06:56:56.856Z,12.00
2022-09-09T06:59:25.510Z,11.63
2022-09-09T07:01:56.427Z,12.30
2022-09-09T07:04:25.016Z,11.45
2022-09-09T07:06:53.718Z,9.60
2022-09-09T07:09:41.708Z,11.15
2022-09-09T07:12:09.187Z,11.30
2022-09-09T07:14:39.611Z,11.45
2022-09-09T07:17:10.547Z,9.15
2022-09-09T07:19:40.254Z,9.30
2022-09-09T07:22:07.600Z,9.52
2022-09-09T07:27:04.513Z,8.15
2022-09-09T07:29:31.741Z,9.82
2022-09-09T07:32:00.120Z,10.15
2022-09-09T07:34:32.474Z,9.20
2022-09-09T07:36:59.571Z,9.65
2022-09-09T07:39:26.698Z,10.05
2022-09-09T07:41:57.747Z,9.75
2022-09-09T07:44:26.107Z,9.43
2022-09-09T07:47:19.046Z,8.25
2022-09-09T07:49:50.992Z,8.27
2022-09-09T07:52:23.257Z,8.15
2022-09-09T07:54:54.582Z,8.90
2022-09-09T07:57:22.647Z,7.30
2022-09-09T07:59:51.896Z,7.97
2022-09-09T08:02:18.795Z,5.47
2022-09-09T08:04:46.510Z,5.55
2022-09-09T08:07:14.967Z,6.45
2022-09-09T08:09:50.678Z,5.60
2022-09-09T08:12:25.543Z,6.32
2022-09-09T08:14:55.676Z,5.93
2022-09-09T08:17:23.838Z,5.70
2022-09-09T08:19:51.561Z,5.80
2022-09-09T08:22:23.278Z,5.18
2022-09-09T08:24:50.810Z,4.30
2022-09-09T08:27:18.583Z,4.70
2022-09-09T08:29:45.779Z,5.65
2022-09-09T08:32:12.750Z,4.97
2022-09-09T08:34:41.579Z,4.20
2022-09-09T08:37:13.423Z,5.25
2022-09-09T08:39:41.602Z,4.78
2022-09-09T08:42:32.962Z,5.68
2022-09-09T08:45:32.537Z,4.80
2022-09-09T08:48:01.798Z,4.47
2022-09-09T08:50:35.135Z,4.80
2022-09-09T08:53:14.064Z,4.85
2022-09-09T08:55:49.985Z,4.60
2022-09-09T08:58:23.352Z,5.80
2022-09-09T09:00:53.969Z,4.97
2022-09-09T09:03:54.215Z,3.40
2022-09-09T09:06:37.226Z,4.78
2022-09-09T09:09:32.997Z,5.18
2022-09-09T09:12:02.618Z,5.38
2022-09-09T09:14:38.743Z,5.78
2022-09-09T09:17:16.318Z,5.22
2022-09-09T09:19:45.370Z,4.03
2022-09-09T09:22:21.819Z,4.30
2022-09-09T09:24:50.577Z,4.85
2022-09-09T09:27:50.648Z,4.43
2022-09-09T09:30:33.527Z,5.35
2022-09-09T09:33:23.890Z,4.93
2022-09-09T09:35:52.031Z,4.80
2022-09-09T09:41:11.320Z,4.30
2022-09-09T09:43:41.359Z,4.30
2022-09-09T09:46:26.943Z,4.70
2022-09-09T09:49:06.649Z,5.72
2022-09-09T09:51:36.695Z,4.75
2022-09-09T09:54:24.998Z,3.70
2022-09-09T09:56:55.888Z,4.05
2022-09-09T09:59:43.942Z,4.20
2022-09-09T10:02:27.797Z,4.30
2022-09-09T10:05:16.178Z,4.10
2022-09-09T10:07:47.055Z,3.88
2022-09-09T10:10:25.844Z,4.65
2022-09-09T10:13:03.208Z,4.05
2022-09-09T10:15:30.225Z,4.22
2022-09-09T10:17:57.149Z,4.72
2022-09-09T10:21:12.069Z,3.83
2022-09-09T10:24:16.471Z,5.25
2022-09-09T10:27:01.823Z,4.53
2022-09-09T10:29:40.940Z,4.43
2022-09-09T10:32:17.728Z,4.95
2022-09-09T10:35:04.032Z,4.68
2022-09-09T10:37:39.699Z,4.45
2022-09-09T10:40:39.735Z,4.78
2022-09-09T10:43:30.901Z,5.25
2022-09-09T10:46:14.408Z,5.50
2022-09-09T10:49:05.708Z,5.63
2022-09-09T10:51:44.645Z,5.88
2022-09-09T10:54:22.009Z,5.30
2022-09-09T10:56:57.894Z,5.63
2022-09-09T10:59:34.870Z,6.50
2022-09-09T11:02:29.114Z,6.07
2022-09-09T11:05:21.286Z,5.43
2022-09-09T11:07:59.557Z,5.93
2022-09-09T11:11:08.500Z,4.90
2022-09-09T11:13:44.375Z,5.60
2022-09-09T11:16:30.165Z,5.80
2022-09-09T11:19:04.559Z,6.45
2022-09-09T11:21:45.189Z,4.40
2022-09-09T11:24:21.138Z,5.57
2022-09-09T11:27:05.075Z,5.20
2022-09-09T11:30:06.065Z,5.38
2022-09-09T11:33:01.546Z,5.55
2022-09-09T11:35:39.652Z,6.03
2022-09-09T11:38:28.002Z,5.28
2022-09-09T11:41:00.283Z,5.28
2022-09-09T11:43:47.440Z,5.05
2022-09-09T11:46:18.639Z,5.30
2022-09-09T11:48:47.408Z,5.00
2022-09-09T11:51:27.899Z,10.52
2022-09-09T11:54:06.201Z,9.25
2022-09-09T11:56:34.902Z,5.78
2022-09-09T12:01:31.658Z,6.63
2022-09-09T12:04:31.343Z,6.05
2022-09-09T12:07:07.042Z,5.38
2022-09-09T12:09:34.002Z,5.57
2022-09-09T12:12:09.203Z,5.85
2022-09-09T12:15:04.427Z,6.05
2022-09-09T12:17:34.461Z,6.38
2022-09-09T12:20:14.309Z,4.82
2022-09-09T12:22:56.092Z,5.82
2022-09-09T12:25:47.876Z,5.43
2022-09-09T12:28:35.839Z,5.43
2022-09-09T12:31:19.196Z,5.05
2022-09-09T12:33:49.272Z,6.03
2022-09-09T12:36:20.766Z,5.40
2022-09-09T12:38:48.009Z,4.85
2022-09-09T12:41:23.744Z,5.10
2022-09-09T12:43:51.953Z,4.93
2022-09-09T12:46:37.738Z,6.00
2022-09-09T12:49:05.686Z,5.13
2022-09-09T12:51:34.415Z,5.93
2022-09-09T12:54:02.040Z,4.70
2022-09-09T12:56:34.006Z,4.70
2022-09-09T12:59:02.003Z,4.00
2022-09-09T13:01:30.742Z,4.00
2022-09-09T13:03:58.151Z,5.13
2022-09-09T13:06:29.407Z,4.32
2022-09-09T13:09:01.875Z,3.75
2022-09-09T13:11:43.450Z,4.13
2022-09-09T13:14:38.432Z,4.32
2022-09-09T13:17:07.476Z,3.88
2022-09-09T13:19:38.431Z,4.20
2022-09-09T13:22:20.905Z,4.32
2022-09-09T13:24:48.022Z,3.63
2022-09-09T13:27:35.359Z,3.63
2022-09-09T13:30:02.646Z,4.13
2022-09-09T13:32:29.871Z,3.72
2022-09-09T13:35:02.646Z,4.59
2022-09-09T13:37:37.347Z,4.03
2022-09-09T13:40:07.345Z,3.92
2022-09-09T13:42:40.352Z,3.38
2022-09-09T13:45:17.143Z,3.58
2022-09-09T13:47:44.022Z,2.80
2022-09-09T13:50:20.931Z,3.67
2022-09-09T13:52:54.255Z,2.88
2022-09-09T13:55:23.662Z,2.92
2022-09-09T13:58:01.413Z,3.97
2022-09-09T14:00:31.134Z,3.08
2022-09-09T14:02:58.310Z,4.00
2022-09-09T14:05:26.302Z,3.67
2022-09-09T14:07:53.543Z,4.45
2022-09-09T14:10:21.109Z,5.40
2022-09-09T14:12:47.977Z,4.43
2022-09-09T14:15:15.659Z,3.53
2022-09-09T14:17:42.901Z,3.27
2022-09-09T14:20:12.931Z,3.65
2022-09-09T14:22:40.431Z,4.63
2022-09-09T14:25:08.022Z,3.75
2022-09-09T14:27:34.953Z,3.40
2022-09-09T14:30:02.847Z,4.57
2022-09-09T14:32:30.354Z,3.67
2022-09-09T14:34:57.264Z,2.88
2022-09-09T14:37:25.104Z,3.85
2022-09-09T14:39:52.175Z,4.85
2022-09-09T14:42:19.915Z,5.15
2022-09-09T14:44:56.884Z,4.13
2022-09-09T14:47:23.797Z,4.90
2022-09-09T14:49:51.002Z,4.82
2022-09-09T14:52:17.956Z,5.32
2022-09-09T14:54:44.842Z,5.22
2022-09-09T14:57:11.911Z,5.40
2022-09-09T14:59:38.766Z,5.00
2022-09-09T15:02:06.363Z,6.32
2022-09-09T15:04:33.422Z,5.13
2022-09-09T15:07:00.552Z,7.28
2022-09-09T15:09:27.509Z,7.97
2022-09-09T15:11:54.494Z,5.90
2022-09-09T15:14:22.487Z,5.07
2022-09-09T15:16:52.398Z,4.68
2022-09-09T15:19:19.367Z,12.32
2022-09-09T15:21:46.478Z,5.47
2022-09-09T15:24:18.000Z,4.43
2022-09-09T15:26:45.154Z,4.68
2022-09-09T15:29:12.147Z,5.57
2022-09-09T15:31:39.200Z,5.70
2022-09-09T15:34:08.215Z,6.40
2022-09-09T15:36:40.831Z,4.72
2022-09-09T15:39:13.773Z,6.07
2022-09-09T15:41:41.286Z,6.88
2022-09-09T15:44:09.210Z,6.18
2022-09-09T15:46:40.373Z,21.83
2022-09-09T15:49:15.662Z,10.57
2022-09-09T15:51:45.239Z,8.95
2022-09-09T15:54:14.931Z,21.45
2022-09-09T15:56:42.575Z,16.63
2022-09-09T15:59:09.908Z,19.27
2022-09-09T16:01:37.563Z,8.40
2022-09-09T16:04:05.101Z,8.32
2022-09-09T16:06:32.850Z,7.18
2022-09-09T16:09:02.118Z,5.93
2022-09-09T16:11:32.256Z,21.55
2022-09-09T16:13:59.913Z,10.35
2022-09-09T16:16:30.256Z,7.30
2022-09-09T16:19:10.705Z,5.72
2022-09-09T16:21:43.589Z,6.90
2022-09-09T16:24:12.836Z,14.07
2022-09-09T16:26:45.032Z,18.65
2022-09-09T16:29:14.154Z,7.75
2022-09-09T16:31:41.794Z,6.95
2022-09-09T16:34:09.927Z,8.37
2022-09-09T16:36:40.182Z,9.13
2022-09-09T16:39:12.842Z,9.57
2022-09-09T16:41:41.566Z,7.20
2022-09-09T16:46:39.936Z,7.07
2022-09-09T16:49:09.647Z,7.63
2022-09-09T16:51:45.601Z,7.97
2022-09-09T16:54:15.023Z,7.45
2022-09-09T16:56:43.911Z,8.25
2022-09-09T16:59:13.722Z,8.35
2022-09-09T17:01:43.030Z,7.50
2022-09-09T17:04:21.738Z,7.57
2022-09-09T17:06:50.529Z,7.90
2022-09-09T17:09:18.298Z,7.50
2022-09-09T17:11:46.678Z,8.13
2022-09-09T17:14:17.096Z,7.78
2022-09-09T17:16:44.811Z,9.25
2022-09-09T17:19:12.617Z,9.30
2022-09-09T17:21:54.548Z,7.13
2022-09-09T17:24:28.349Z,10.13
2022-09-09T17:26:56.398Z,7.03
2022-09-09T17:29:23.276Z,9.00
2022-09-09T17:31:50.173Z,8.45
2022-09-09T17:34:17.087Z,9.57
2022-09-09T17:36:43.902Z,9.63
2022-09-09T17:39:11.263Z,10.18
2022-09-09T17:41:39.756Z,8.20
2022-09-09T17:46:56.576Z,10.70
2022-09-09T17:49:23.373Z,16.60
2022-09-09T17:51:50.299Z,31.95
2022-09-09T17:54:20.382Z,11.68
2022-09-09T17:59:18.931Z,10.90
2022-09-09T18:01:49.664Z,11.90
2022-09-09T18:04:17.724Z,12.70
2022-09-09T18:06:47.542Z,14.18
2022-09-09T18:09:23.638Z,16.90
2022-09-09T18:11:54.606Z,17.52
2022-09-09T18:14:27.541Z,10.43
2022-09-09T18:16:54.887Z,12.18
2022-09-09T18:19:26.128Z,12.02
2022-09-09T18:21:53.146Z,10.95
2022-09-09T18:24:22.298Z,10.70
2022-09-09T18:26:50.348Z,8.68
2022-09-09T18:29:24.885Z,8.18
2022-09-09T18:31:53.796Z,9.32
2022-09-09T18:34:22.857Z,9.32
2022-09-09T18:36:56.146Z,9.43
2022-09-09T18:39:29.025Z,7.82
2022-09-09T18:42:00.658Z,9.88
2022-09-09T18:44:31.172Z,9.75
2022-09-09T18:46:58.575Z,7.72
2022-09-09T18:49:26.842Z,7.47
2022-09-09T18:51:54.183Z,8.88
2022-09-09T18:54:29.784Z,7.53
2022-09-09T18:56:56.878Z,6.80
2022-09-09T18:59:24.148Z,6.45
2022-09-09T19:01:52.960Z,6.97
2022-09-09T19:06:49.246Z,7.70
2022-09-09T19:09:18.163Z,7.40
2022-09-09T19:11:45.763Z,7.40
2022-09-09T19:14:15.808Z,7.38
2022-09-09T19:16:44.571Z,17.38
2022-09-09T19:19:42.688Z,7.70
2022-09-09T19:22:11.947Z,7.03
2022-09-09T19:24:38.957Z,7.63
2022-09-09T19:27:07.175Z,8.07
2022-09-09T19:29:36.678Z,7.63
2022-09-09T19:32:51.785Z,7.45
2022-09-09T19:34:52.469Z,8.30
2022-09-09T19:37:19.727Z,8.88
2022-09-09T19:39:47.667Z,7.05
2022-09-09T19:42:14.850Z,7.37
2022-09-09T19:44:41.775Z,8.20
2022-09-09T19:47:08.873Z,9.50
2022-09-09T19:49:37.267Z,6.60
2022-09-09T19:52:04.573Z,6.68
2022-09-09T19:54:31.448Z,7.82
2022-09-09T19:56:59.263Z,7.60
2022-09-09T19:59:27.555Z,6.72
2022-09-09T20:01:56.915Z,6.95
2022-09-09T20:04:24.184Z,7.88
2022-09-09T20:06:52.233Z,7.20
2022-09-09T20:09:19.702Z,6.15
2022-09-09T20:11:49.005Z,9.30
2022-09-09T20:14:17.329Z,8.35
2022-09-09T20:16:45.884Z,6.80
2022-09-09T20:19:16.273Z,10.07
2022-09-09T20:21:47.861Z,8.30
2022-09-09T20:24:18.210Z,8.63
2022-09-09T20:26:46.620Z,7.30
2022-09-09T20:29:16.325Z,8.60
2022-09-09T20:31:44.488Z,6.63
2022-09-09T20:34:18.885Z,7.70
2022-09-09T20:36:46.710Z,7.57
2022-09-09T20:39:16.238Z,8.10
2022-09-09T20:41:45.533Z,7.07
2022-09-09T20:44:16.250Z,6.22
2022-09-09T20:46:48.275Z,6.18
2022-09-09T20:49:19.809Z,5.03
2022-09-09T20:51:48.394Z,5.25
2022-09-09T20:54:26.565Z,5.80
2022-09-09T20:56:55.479Z,6.95
2022-09-09T20:59:24.937Z,5.90
2022-09-09T21:01:53.366Z,5.55
2022-09-09T21:04:21.995Z,6.00
2022-09-09T21:06:51.286Z,8.00
2022-09-09T21:09:19.500Z,5.40
2022-09-09T21:11:47.329Z,5.32
2022-09-09T21:14:14.739Z,8.40
2022-09-09T21:16:41.973Z,7.82
2022-09-09T21:19:09.678Z,9.13
2022-09-09T21:21:36.827Z,11.23
2022-09-09T21:24:04.178Z,9.15
2022-09-09T21:26:31.261Z,7.07
2022-09-09T21:28:58.180Z,7.88
2022-09-09T21:31:28.230Z,8.73
2022-09-09T21:33:57.353Z,9.38
2022-09-09T21:36:25.003Z,8.88
2022-09-09T21:38:51.874Z,11.18
2022-09-09T21:41:19.392Z,10.05
2022-09-09T21:43:51.087Z,9.05
2022-09-09T21:46:18.306Z,22.77
2022-09-09T21:48:45.248Z,9.48
2022-09-09T21:51:15.031Z,7.50
2022-09-09T21:53:43.543Z,7.05
2022-09-09T21:56:13.396Z,7.95
2022-09-09T21:58:43.564Z,6.00
2022-09-09T22:01:16.765Z,6.97
2022-09-09T22:03:44.860Z,9.68
2022-09-09T22:06:16.525Z,6.50
2022-09-09T22:08:44.667Z,6.28
2022-09-09T22:11:19.071Z,6.53
2022-09-09T22:13:46.327Z,7.43
2022-09-09T22:16:15.503Z,6.55
2022-09-09T22:18:43.046Z,7.20
2022-09-09T22:21:16.277Z,6.40
2022-09-09T22:23:43.247Z,7.18
2022-09-09T22:26:11.231Z,6.82
2022-09-09T22:28:38.898Z,10.07
2022-09-09T22:31:06.292Z,8.77
2022-09-09T22:33:33.891Z,10.25
2022-09-09T22:36:01.017Z,9.60
2022-09-09T22:38:27.832Z,9.63
2022-09-09T22:40:54.845Z,8.95
2022-09-09T22:43:22.880Z,9.50
2022-09-09T22:45:51.210Z,8.90
2022-09-09T22:48:18.392Z,8.68
2022-09-09T22:50:46.808Z,8.98
2022-09-09T22:53:15.861Z,8.82
2022-09-09T22:55:43.111Z,9.10
2022-09-09T22:58:10.404Z,8.15
2022-09-09T23:00:41.889Z,8.30
2022-09-09T23:03:08.849Z,11.80
2022-09-09T23:05:38.727Z,10.63
2022-09-09T23:08:05.659Z,9.63
2022-09-09T23:10:33.915Z,8.93
2022-09-09T23:13:00.737Z,9.20
2022-09-09T23:15:31.484Z,8.98
2022-09-09T23:17:58.715Z,9.40
2022-09-09T23:20:26.747Z,9.48
2022-09-09T23:22:54.397Z,8.13
2022-09-09T23:25:21.268Z,9.70
2022-09-09T23:27:48.972Z,8.68
2022-09-09T23:30:15.854Z,9.73
2022-09-09T23:32:47.238Z,10.95
2022-09-09T23:35:14.231Z,11.02
2022-09-09T23:37:41.063Z,10.68
2022-09-09T23:40:08.414Z,10.77
2022-09-09T23:42:35.934Z,11.13
2022-09-09T23:45:03.128Z,10.52
2022-09-09T23:47:30.000Z,11.18
2022-09-09T23:49:56.966Z,11.57
2022-09-09T23:52:26.771Z,10.13
2022-09-09T23:54:56.159Z,9.45
2022-09-09T23:57:23.034Z,11.32
2022-09-09T23:59:49.828Z,9.15
